Santo Antonio do Descoberto, Brazil
Current Conditions -  °F | °C
As of 6:00 AM on Thursday 23 Oct 2014 (Local Time) from SBBR Reporting Station
Clear Clear  
Wind Chill: 70°   Ceiling: Unl
Heat Index: 70°   Visibility: 6mi
Dew Point: 61°   Wind: 6mph
Humidity: 73%   Direction: 70°ENE
Pressure: 30.12"   Gusts: NA
Location:  15.94°S, 48.25°W
Report Text: SBBR 230800Z 07005KT CAVOK 21/16 Q1020
Loading
Personal Weather Stations






























Interactive Weather Map
Tropical Storm Tracking
New forecast layout! Learn more

10-Day Weather Forecast

Advertisements
Track Severe Weather on mobile